sensor_id;sensor_type;location;lat;lon;timestamp;P1;durP1;ratioP1;P2;durP2;ratioP2
7142;SDS011;3613;48.902;9.204;2022-12-07T00:01:07;10.47;;;6.93;;
7142;SDS011;3613;48.902;9.204;2022-12-07T00:03:34;12.20;;;8.27;;
7142;SDS011;3613;48.902;9.204;2022-12-07T00:06:01;9.97;;;7.40;;
7142;SDS011;3613;48.902;9.204;2022-12-07T00:08:30;11.53;;;7.67;;
7142;SDS011;3613;48.902;9.204;2022-12-07T00:11:06;14.03;;;8.40;;
7142;SDS011;3613;48.902;9.204;2022-12-07T00:13:43;11.87;;;8.10;;
7142;SDS011;3613;48.902;9.204;2022-12-07T00:16:10;10.30;;;8.00;;
7142;SDS011;3613;48.902;9.204;2022-12-07T00:18:40;10.97;;;7.87;;
7142;SDS011;3613;48.902;9.204;2022-12-07T00:21:09;13.00;;;7.90;;
7142;SDS011;3613;48.902;9.204;2022-12-07T00:23:35;10.67;;;7.03;;
7142;SDS011;3613;48.902;9.204;2022-12-07T00:26:06;12.37;;;7.97;;
7142;SDS011;3613;48.902;9.204;2022-12-07T00:28:49;10.50;;;7.13;;
7142;SDS011;3613;48.902;9.204;2022-12-07T00:31:17;11.37;;;7.13;;
7142;SDS011;3613;48.902;9.204;2022-12-07T00:33:44;12.83;;;7.77;;
7142;SDS011;3613;48.902;9.204;2022-12-07T00:36:12;13.03;;;7.33;;
7142;SDS011;3613;48.902;9.204;2022-12-07T00:38:39;12.70;;;7.63;;
7142;SDS011;3613;48.902;9.204;2022-12-07T00:41:06;10.73;;;7.33;;
7142;SDS011;3613;48.902;9.204;2022-12-07T00:43:34;9.97;;;7.10;;
7142;SDS011;3613;48.902;9.204;2022-12-07T00:46:00;10.67;;;7.87;;
7142;SDS011;3613;48.902;9.204;2022-12-07T00:48:28;11.50;;;7.83;;
7142;SDS011;3613;48.902;9.204;2022-12-07T00:50:54;10.73;;;7.77;;
7142;SDS011;3613;48.902;9.204;2022-12-07T00:53:19;13.13;;;8.53;;
7142;SDS011;3613;48.902;9.204;2022-12-07T00:55:48;12.63;;;8.37;;
7142;SDS011;3613;48.902;9.204;2022-12-07T00:58:14;11.83;;;8.00;;
7142;SDS011;3613;48.902;9.204;2022-12-07T01:00:40;10.03;;;7.57;;
7142;SDS011;3613;48.902;9.204;2022-12-07T01:03:10;13.00;;;8.60;;
7142;SDS011;3613;48.902;9.204;2022-12-07T01:05:37;13.37;;;8.70;;
7142;SDS011;3613;48.902;9.204;2022-12-07T01:08:03;12.73;;;8.03;;
7142;SDS011;3613;48.902;9.204;2022-12-07T01:10:28;13.03;;;8.57;;
7142;SDS011;3613;48.902;9.204;2022-12-07T01:12:55;12.20;;;8.93;;
7142;SDS011;3613;48.902;9.204;2022-12-07T01:15:24;11.70;;;7.70;;
7142;SDS011;3613;48.902;9.204;2022-12-07T01:17:51;13.83;;;8.50;;
7142;SDS011;3613;48.902;9.204;2022-12-07T01:20:19;11.87;;;8.60;;
7142;SDS011;3613;48.902;9.204;2022-12-07T01:22:44;15.53;;;9.40;;
7142;SDS011;3613;48.902;9.204;2022-12-07T01:25:12;14.93;;;9.07;;
7142;SDS011;3613;48.902;9.204;2022-12-07T01:27:38;12.17;;;8.47;;
7142;SDS011;3613;48.902;9.204;2022-12-07T01:30:06;13.17;;;8.90;;
7142;SDS011;3613;48.902;9.204;2022-12-07T01:32:33;13.53;;;9.30;;
7142;SDS011;3613;48.902;9.204;2022-12-07T01:34:59;13.70;;;8.77;;
7142;SDS011;3613;48.902;9.204;2022-12-07T01:37:24;14.53;;;8.17;;
7142;SDS011;3613;48.902;9.204;2022-12-07T01:39:50;13.73;;;8.17;;
7142;SDS011;3613;48.902;9.204;2022-12-07T01:42:16;13.37;;;8.83;;
7142;SDS011;3613;48.902;9.204;2022-12-07T01:47:56;13.70;;;8.73;;
7142;SDS011;3613;48.902;9.204;2022-12-07T01:50:24;13.97;;;8.63;;
7142;SDS011;3613;48.902;9.204;2022-12-07T01:52:53;11.87;;;8.17;;
7142;SDS011;3613;48.902;9.204;2022-12-07T01:55:20;13.73;;;8.73;;
7142;SDS011;3613;48.902;9.204;2022-12-07T01:57:48;15.47;;;9.07;;
7142;SDS011;3613;48.902;9.204;2022-12-07T02:00:15;14.70;;;8.90;;
7142;SDS011;3613;48.902;9.204;2022-12-07T02:02:47;12.80;;;8.30;;
7142;SDS011;3613;48.902;9.204;2022-12-07T02:05:19;15.23;;;8.00;;
7142;SDS011;3613;48.902;9.204;2022-12-07T02:07:45;14.77;;;8.80;;
7142;SDS011;3613;48.902;9.204;2022-12-07T02:12:39;13.23;;;8.87;;
7142;SDS011;3613;48.902;9.204;2022-12-07T02:15:05;12.57;;;8.30;;
7142;SDS011;3613;48.902;9.204;2022-12-07T02:17:32;11.87;;;8.60;;
7142;SDS011;3613;48.902;9.204;2022-12-07T02:20:39;12.83;;;8.10;;
7142;SDS011;3613;48.902;9.204;2022-12-07T02:23:12;12.83;;;9.00;;
7142;SDS011;3613;48.902;9.204;2022-12-07T02:28:56;14.27;;;8.70;;
7142;SDS011;3613;48.902;9.204;2022-12-07T02:31:36;12.90;;;9.23;;
7142;SDS011;3613;48.902;9.204;2022-12-07T02:34:11;14.53;;;9.37;;
7142;SDS011;3613;48.902;9.204;2022-12-07T02:36:55;13.63;;;8.63;;
7142;SDS011;3613;48.902;9.204;2022-12-07T02:42:19;14.90;;;9.40;;
7142;SDS011;3613;48.902;9.204;2022-12-07T02:44:50;14.93;;;9.03;;
7142;SDS011;3613;48.902;9.204;2022-12-07T02:47:16;14.60;;;9.00;;
7142;SDS011;3613;48.902;9.204;2022-12-07T02:49:45;14.57;;;9.03;;
7142;SDS011;3613;48.902;9.204;2022-12-07T02:52:13;13.73;;;9.57;;
7142;SDS011;3613;48.902;9.204;2022-12-07T02:54:39;15.00;;;9.17;;
7142;SDS011;3613;48.902;9.204;2022-12-07T03:11:37;14.10;;;8.53;;
7142;SDS011;3613;48.902;9.204;2022-12-07T03:16:51;12.50;;;8.57;;
7142;SDS011;3613;48.902;9.204;2022-12-07T03:19:22;12.47;;;7.97;;
7142;SDS011;3613;48.902;9.204;2022-12-07T03:21:56;13.30;;;9.20;;
7142;SDS011;3613;48.902;9.204;2022-12-07T03:24:27;13.30;;;8.87;;
7142;SDS011;3613;48.902;9.204;2022-12-07T03:27:03;11.93;;;8.70;;
7142;SDS011;3613;48.902;9.204;2022-12-07T03:29:44;11.90;;;8.63;;
7142;SDS011;3613;48.902;9.204;2022-12-07T03:32:25;14.20;;;8.87;;
7142;SDS011;3613;48.902;9.204;2022-12-07T03:35:07;13.50;;;8.50;;
7142;SDS011;3613;48.902;9.204;2022-12-07T03:37:36;12.60;;;7.73;;
7142;SDS011;3613;48.902;9.204;2022-12-07T03:42:36;12.47;;;8.23;;
7142;SDS011;3613;48.902;9.204;2022-12-07T03:45:02;14.57;;;8.80;;
7142;SDS011;3613;48.902;9.204;2022-12-07T03:47:35;12.70;;;8.80;;
7142;SDS011;3613;48.902;9.204;2022-12-07T03:50:12;12.80;;;8.03;;
7142;SDS011;3613;48.902;9.204;2022-12-07T03:52:44;13.60;;;8.10;;
7142;SDS011;3613;48.902;9.204;2022-12-07T03:57:50;16.53;;;9.20;;
7142;SDS011;3613;48.902;9.204;2022-12-07T04:00:20;14.17;;;8.47;;
7142;SDS011;3613;48.902;9.204;2022-12-07T04:02:50;14.73;;;9.27;;
7142;SDS011;3613;48.902;9.204;2022-12-07T04:05:20;13.83;;;8.10;;
7142;SDS011;3613;48.902;9.204;2022-12-07T04:07:45;15.83;;;8.83;;
7142;SDS011;3613;48.902;9.204;2022-12-07T04:10:11;15.87;;;9.87;;
7142;SDS011;3613;48.902;9.204;2022-12-07T04:12:39;18.00;;;10.27;;
7142;SDS011;3613;48.902;9.204;2022-12-07T04:15:05;17.13;;;10.10;;
7142;SDS011;3613;48.902;9.204;2022-12-07T04:17:32;16.27;;;9.87;;
7142;SDS011;3613;48.902;9.204;2022-12-07T04:19:57;16.77;;;10.00;;
7142;SDS011;3613;48.902;9.204;2022-12-07T04:22:23;18.23;;;9.63;;
7142;SDS011;3613;48.902;9.204;2022-12-07T04:24:49;17.97;;;10.53;;
7142;SDS011;3613;48.902;9.204;2022-12-07T04:27:16;18.37;;;9.73;;
7142;SDS011;3613;48.902;9.204;2022-12-07T04:29:42;16.20;;;9.93;;
7142;SDS011;3613;48.902;9.204;2022-12-07T04:32:08;17.97;;;9.90;;
7142;SDS011;3613;48.902;9.204;2022-12-07T04:34:33;17.30;;;9.80;;
7142;SDS011;3613;48.902;9.204;2022-12-07T04:36:59;16.03;;;10.33;;
7142;SDS011;3613;48.902;9.204;2022-12-07T04:39:32;17.93;;;11.23;;
7142;SDS011;3613;48.902;9.204;2022-12-07T04:42:00;21.47;;;11.20;;
7142;SDS011;3613;48.902;9.204;2022-12-07T04:44:26;17.33;;;9.80;;
7142;SDS011;3613;48.902;9.204;2022-12-07T04:46:53;17.93;;;9.90;;
7142;SDS011;3613;48.902;9.204;2022-12-07T04:49:20;18.00;;;9.93;;
7142;SDS011;3613;48.902;9.204;2022-12-07T04:51:46;17.27;;;9.60;;
7142;SDS011;3613;48.902;9.204;2022-12-07T04:54:13;18.23;;;10.23;;
7142;SDS011;3613;48.902;9.204;2022-12-07T04:56:39;15.93;;;9.63;;
7142;SDS011;3613;48.902;9.204;2022-12-07T04:59:05;16.67;;;9.67;;
7142;SDS011;3613;48.902;9.204;2022-12-07T05:01:31;14.47;;;9.07;;
7142;SDS011;3613;48.902;9.204;2022-12-07T05:03:59;15.30;;;9.60;;
7142;SDS011;3613;48.902;9.204;2022-12-07T05:06:25;17.33;;;10.10;;
7142;SDS011;3613;48.902;9.204;2022-12-07T05:08:51;15.67;;;9.27;;
7142;SDS011;3613;48.902;9.204;2022-12-07T05:11:17;15.77;;;9.87;;
7142;SDS011;3613;48.902;9.204;2022-12-07T05:14:02;18.50;;;11.03;;
7142;SDS011;3613;48.902;9.204;2022-12-07T05:16:43;14.97;;;9.53;;
7142;SDS011;3613;48.902;9.204;2022-12-07T05:19:11;16.70;;;9.53;;
7142;SDS011;3613;48.902;9.204;2022-12-07T05:21:37;13.07;;;8.80;;
7142;SDS011;3613;48.902;9.204;2022-12-07T05:24:06;16.17;;;9.70;;
7142;SDS011;3613;48.902;9.204;2022-12-07T05:26:34;14.90;;;9.57;;
7142;SDS011;3613;48.902;9.204;2022-12-07T05:29:01;17.97;;;10.03;;
7142;SDS011;3613;48.902;9.204;2022-12-07T05:31:27;15.93;;;9.87;;
7142;SDS011;3613;48.902;9.204;2022-12-07T05:33:55;16.40;;;9.93;;
7142;SDS011;3613;48.902;9.204;2022-12-07T05:36:21;15.57;;;8.80;;
7142;SDS011;3613;48.902;9.204;2022-12-07T05:38:47;16.20;;;9.53;;
7142;SDS011;3613;48.902;9.204;2022-12-07T05:41:14;17.73;;;9.67;;
7142;SDS011;3613;48.902;9.204;2022-12-07T05:44:03;21.27;;;10.57;;
7142;SDS011;3613;48.902;9.204;2022-12-07T05:46:29;16.40;;;10.40;;
7142;SDS011;3613;48.902;9.204;2022-12-07T05:48:55;18.73;;;10.43;;
7142;SDS011;3613;48.902;9.204;2022-12-07T05:51:23;21.57;;;11.70;;
7142;SDS011;3613;48.902;9.204;2022-12-07T05:53:51;18.13;;;10.60;;
7142;SDS011;3613;48.902;9.204;2022-12-07T05:56:17;17.40;;;10.40;;
7142;SDS011;3613;48.902;9.204;2022-12-07T05:58:43;15.80;;;9.93;;
7142;SDS011;3613;48.902;9.204;2022-12-07T06:01:27;19.20;;;10.50;;
7142;SDS011;3613;48.902;9.204;2022-12-07T06:03:53;16.70;;;10.20;;
7142;SDS011;3613;48.902;9.204;2022-12-07T06:06:18;18.50;;;10.97;;
7142;SDS011;3613;48.902;9.204;2022-12-07T06:08:44;14.83;;;9.40;;
7142;SDS011;3613;48.902;9.204;2022-12-07T06:11:10;16.13;;;9.37;;
7142;SDS011;3613;48.902;9.204;2022-12-07T06:13:54;18.17;;;10.17;;
7142;SDS011;3613;48.902;9.204;2022-12-07T06:16:19;16.57;;;9.73;;
7142;SDS011;3613;48.902;9.204;2022-12-07T06:18:45;16.13;;;9.87;;
7142;SDS011;3613;48.902;9.204;2022-12-07T06:21:11;15.47;;;9.50;;
7142;SDS011;3613;48.902;9.204;2022-12-07T06:23:37;17.20;;;9.10;;
7142;SDS011;3613;48.902;9.204;2022-12-07T06:26:02;15.20;;;9.40;;
7142;SDS011;3613;48.902;9.204;2022-12-07T06:28:30;15.33;;;8.87;;
7142;SDS011;3613;48.902;9.204;2022-12-07T06:30:59;20.70;;;9.40;;
7142;SDS011;3613;48.902;9.204;2022-12-07T06:33:26;15.57;;;8.70;;
7142;SDS011;3613;48.902;9.204;2022-12-07T06:35:55;15.73;;;8.47;;
7142;SDS011;3613;48.902;9.204;2022-12-07T06:38:20;14.53;;;8.57;;
7142;SDS011;3613;48.902;9.204;2022-12-07T06:40:49;14.83;;;8.63;;
7142;SDS011;3613;48.902;9.204;2022-12-07T06:43:15;11.17;;;7.80;;
7142;SDS011;3613;48.902;9.204;2022-12-07T06:45:41;12.10;;;8.07;;
7142;SDS011;3613;48.902;9.204;2022-12-07T06:48:07;13.93;;;8.03;;
7142;SDS011;3613;48.902;9.204;2022-12-07T06:50:35;12.13;;;7.80;;
7142;SDS011;3613;48.902;9.204;2022-12-07T06:53:00;12.23;;;7.63;;
7142;SDS011;3613;48.902;9.204;2022-12-07T06:55:26;12.10;;;7.30;;
7142;SDS011;3613;48.902;9.204;2022-12-07T06:57:56;14.03;;;7.37;;
7142;SDS011;3613;48.902;9.204;2022-12-07T07:00:22;11.00;;;7.13;;
7142;SDS011;3613;48.902;9.204;2022-12-07T07:02:48;13.03;;;7.80;;
7142;SDS011;3613;48.902;9.204;2022-12-07T07:05:19;14.10;;;6.93;;
7142;SDS011;3613;48.902;9.204;2022-12-07T07:07:46;10.37;;;7.00;;
7142;SDS011;3613;48.902;9.204;2022-12-07T07:10:13;12.07;;;7.50;;
7142;SDS011;3613;48.902;9.204;2022-12-07T07:12:41;14.03;;;7.93;;
7142;SDS011;3613;48.902;9.204;2022-12-07T07:15:07;13.77;;;7.60;;
7142;SDS011;3613;48.902;9.204;2022-12-07T07:17:36;11.37;;;6.93;;
7142;SDS011;3613;48.902;9.204;2022-12-07T07:20:07;10.17;;;7.03;;
7142;SDS011;3613;48.902;9.204;2022-12-07T07:22:32;8.63;;;5.87;;
7142;SDS011;3613;48.902;9.204;2022-12-07T07:24:58;10.23;;;7.23;;
7142;SDS011;3613;48.902;9.204;2022-12-07T07:27:24;10.20;;;6.37;;
7142;SDS011;3613;48.902;9.204;2022-12-07T07:29:49;10.23;;;6.43;;
7142;SDS011;3613;48.902;9.204;2022-12-07T07:32:15;11.23;;;6.50;;
7142;SDS011;3613;48.902;9.204;2022-12-07T07:34:40;10.37;;;6.73;;
7142;SDS011;3613;48.902;9.204;2022-12-07T07:37:08;9.43;;;6.50;;
7142;SDS011;3613;48.902;9.204;2022-12-07T07:39:35;10.83;;;6.13;;
7142;SDS011;3613;48.902;9.204;2022-12-07T07:42:01;9.97;;;5.87;;
7142;SDS011;3613;48.902;9.204;2022-12-07T07:44:27;11.67;;;6.40;;
7142;SDS011;3613;48.902;9.204;2022-12-07T07:46:52;9.77;;;6.13;;
7142;SDS011;3613;48.902;9.204;2022-12-07T07:49:18;9.83;;;6.00;;
7142;SDS011;3613;48.902;9.204;2022-12-07T07:51:43;10.37;;;6.47;;
7142;SDS011;3613;48.902;9.204;2022-12-07T07:54:09;9.30;;;6.30;;
7142;SDS011;3613;48.902;9.204;2022-12-07T07:56:39;10.80;;;7.03;;
7142;SDS011;3613;48.902;9.204;2022-12-07T07:59:05;8.03;;;5.80;;
7142;SDS011;3613;48.902;9.204;2022-12-07T08:01:31;9.53;;;6.50;;
7142;SDS011;3613;48.902;9.204;2022-12-07T08:03:59;9.57;;;6.20;;
7142;SDS011;3613;48.902;9.204;2022-12-07T08:06:27;9.70;;;6.03;;
7142;SDS011;3613;48.902;9.204;2022-12-07T08:08:55;9.23;;;6.40;;
7142;SDS011;3613;48.902;9.204;2022-12-07T08:11:23;11.00;;;6.40;;
7142;SDS011;3613;48.902;9.204;2022-12-07T08:13:51;8.67;;;5.90;;
7142;SDS011;3613;48.902;9.204;2022-12-07T08:16:17;11.33;;;6.50;;
7142;SDS011;3613;48.902;9.204;2022-12-07T08:18:42;9.53;;;5.43;;
7142;SDS011;3613;48.902;9.204;2022-12-07T08:21:12;12.07;;;6.27;;
7142;SDS011;3613;48.902;9.204;2022-12-07T08:23:41;10.17;;;6.30;;
7142;SDS011;3613;48.902;9.204;2022-12-07T08:26:10;10.73;;;6.03;;
7142;SDS011;3613;48.902;9.204;2022-12-07T08:28:38;8.67;;;5.90;;
7142;SDS011;3613;48.902;9.204;2022-12-07T08:31:05;9.97;;;5.97;;
7142;SDS011;3613;48.902;9.204;2022-12-07T08:33:33;9.30;;;6.20;;
7142;SDS011;3613;48.902;9.204;2022-12-07T08:36:03;10.17;;;6.80;;
7142;SDS011;3613;48.902;9.204;2022-12-07T08:38:35;9.53;;;6.27;;
7142;SDS011;3613;48.902;9.204;2022-12-07T08:41:05;10.40;;;6.60;;
7142;SDS011;3613;48.902;9.204;2022-12-07T08:43:31;9.63;;;5.83;;
7142;SDS011;3613;48.902;9.204;2022-12-07T08:48:35;9.90;;;6.70;;
7142;SDS011;3613;48.902;9.204;2022-12-07T08:51:07;8.27;;;5.40;;
7142;SDS011;3613;48.902;9.204;2022-12-07T08:53:33;11.40;;;5.77;;
7142;SDS011;3613;48.902;9.204;2022-12-07T08:56:00;9.63;;;6.00;;
7142;SDS011;3613;48.902;9.204;2022-12-07T08:58:26;8.77;;;5.70;;
7142;SDS011;3613;48.902;9.204;2022-12-07T09:00:54;8.87;;;5.87;;
7142;SDS011;3613;48.902;9.204;2022-12-07T09:03:19;9.80;;;5.40;;
7142;SDS011;3613;48.902;9.204;2022-12-07T09:05:47;8.60;;;5.47;;
7142;SDS011;3613;48.902;9.204;2022-12-07T09:08:13;9.97;;;5.77;;
7142;SDS011;3613;48.902;9.204;2022-12-07T09:10:39;7.07;;;5.23;;
7142;SDS011;3613;48.902;9.204;2022-12-07T09:13:05;6.53;;;4.87;;
7142;SDS011;3613;48.902;9.204;2022-12-07T09:15:30;8.00;;;5.10;;
7142;SDS011;3613;48.902;9.204;2022-12-07T09:17:56;6.07;;;4.83;;
7142;SDS011;3613;48.902;9.204;2022-12-07T09:20:22;8.87;;;4.80;;
7142;SDS011;3613;48.902;9.204;2022-12-07T09:22:48;6.27;;;4.60;;
7142;SDS011;3613;48.902;9.204;2022-12-07T09:25:18;6.90;;;4.50;;
7142;SDS011;3613;48.902;9.204;2022-12-07T09:27:44;5.17;;;3.90;;
7142;SDS011;3613;48.902;9.204;2022-12-07T09:30:15;5.90;;;4.17;;
7142;SDS011;3613;48.902;9.204;2022-12-07T09:32:40;6.70;;;4.40;;
7142;SDS011;3613;48.902;9.204;2022-12-07T09:35:06;7.23;;;4.20;;
7142;SDS011;3613;48.902;9.204;2022-12-07T09:37:32;7.30;;;4.67;;
7142;SDS011;3613;48.902;9.204;2022-12-07T09:40:00;7.03;;;4.80;;
7142;SDS011;3613;48.902;9.204;2022-12-07T09:42:29;9.13;;;4.43;;
7142;SDS011;3613;48.902;9.204;2022-12-07T09:45:05;7.70;;;4.90;;
7142;SDS011;3613;48.902;9.204;2022-12-07T09:47:34;7.60;;;4.23;;
7142;SDS011;3613;48.902;9.204;2022-12-07T09:50:04;6.70;;;4.67;;
7142;SDS011;3613;48.902;9.204;2022-12-07T09:52:36;7.37;;;4.93;;
7142;SDS011;3613;48.902;9.204;2022-12-07T09:55:12;6.87;;;4.90;;
7142;SDS011;3613;48.902;9.204;2022-12-07T09:57:39;7.03;;;4.57;;
7142;SDS011;3613;48.902;9.204;2022-12-07T10:00:17;6.47;;;4.37;;
7142;SDS011;3613;48.902;9.204;2022-12-07T10:05:27;9.67;;;5.37;;
7142;SDS011;3613;48.902;9.204;2022-12-07T10:08:14;6.63;;;4.80;;
7142;SDS011;3613;48.902;9.204;2022-12-07T10:10:43;9.07;;;5.57;;
7142;SDS011;3613;48.902;9.204;2022-12-07T10:13:14;7.60;;;4.97;;
7142;SDS011;3613;48.902;9.204;2022-12-07T10:15:56;7.87;;;4.70;;
7142;SDS011;3613;48.902;9.204;2022-12-07T10:18:30;6.70;;;4.70;;
7142;SDS011;3613;48.902;9.204;2022-12-07T10:23:32;7.50;;;5.30;;
7142;SDS011;3613;48.902;9.204;2022-12-07T10:26:18;9.07;;;5.80;;
7142;SDS011;3613;48.902;9.204;2022-12-07T10:28:47;6.17;;;4.20;;
7142;SDS011;3613;48.902;9.204;2022-12-07T10:31:21;7.23;;;4.83;;
7142;SDS011;3613;48.902;9.204;2022-12-07T10:33:57;7.33;;;4.17;;
7142;SDS011;3613;48.902;9.204;2022-12-07T10:41:28;5.77;;;3.70;;
7142;SDS011;3613;48.902;9.204;2022-12-07T10:43:55;5.10;;;3.77;;
7142;SDS011;3613;48.902;9.204;2022-12-07T10:54:13;6.03;;;4.13;;
7142;SDS011;3613;48.902;9.204;2022-12-07T11:02:32;6.53;;;4.13;;
7142;SDS011;3613;48.902;9.204;2022-12-07T11:05:24;7.93;;;4.80;;
7142;SDS011;3613;48.902;9.204;2022-12-07T11:14:03;6.73;;;4.47;;
7142;SDS011;3613;48.902;9.204;2022-12-07T11:16:56;7.27;;;4.93;;
7142;SDS011;3613;48.902;9.204;2022-12-07T11:25:22;6.53;;;5.10;;
7142;SDS011;3613;48.902;9.204;2022-12-07T11:34:00;11.13;;;5.70;;
7142;SDS011;3613;48.902;9.204;2022-12-07T11:41:44;10.33;;;6.00;;
7142;SDS011;3613;48.902;9.204;2022-12-07T11:47:10;9.47;;;6.17;;
7142;SDS011;3613;48.902;9.204;2022-12-07T11:49:43;10.47;;;6.33;;
7142;SDS011;3613;48.902;9.204;2022-12-07T11:52:14;10.10;;;6.40;;
7142;SDS011;3613;48.902;9.204;2022-12-07T11:55:00;9.77;;;6.20;;
7142;SDS011;3613;48.902;9.204;2022-12-07T11:57:33;9.00;;;5.57;;
7142;SDS011;3613;48.902;9.204;2022-12-07T12:00:05;12.47;;;6.97;;
7142;SDS011;3613;48.902;9.204;2022-12-07T12:02:41;9.27;;;6.10;;
7142;SDS011;3613;48.902;9.204;2022-12-07T12:07:48;9.53;;;6.50;;
7142;SDS011;3613;48.902;9.204;2022-12-07T12:10:41;9.47;;;6.30;;
7142;SDS011;3613;48.902;9.204;2022-12-07T12:13:58;10.93;;;6.60;;
7142;SDS011;3613;48.902;9.204;2022-12-07T12:19:01;8.87;;;6.63;;
7142;SDS011;3613;48.902;9.204;2022-12-07T12:21:47;10.30;;;6.73;;
7142;SDS011;3613;48.902;9.204;2022-12-07T12:24:20;10.57;;;6.57;;
7142;SDS011;3613;48.902;9.204;2022-12-07T12:27:25;8.53;;;6.57;;
7142;SDS011;3613;48.902;9.204;2022-12-07T12:29:58;11.57;;;6.97;;
7142;SDS011;3613;48.902;9.204;2022-12-07T12:32:33;9.87;;;6.20;;
7142;SDS011;3613;48.902;9.204;2022-12-07T12:37:48;9.97;;;6.37;;
7142;SDS011;3613;48.902;9.204;2022-12-07T12:42:56;13.23;;;7.70;;
7142;SDS011;3613;48.902;9.204;2022-12-07T12:45:23;10.33;;;6.80;;
7142;SDS011;3613;48.902;9.204;2022-12-07T12:50:20;10.63;;;6.80;;
7142;SDS011;3613;48.902;9.204;2022-12-07T12:52:50;10.03;;;7.20;;
7142;SDS011;3613;48.902;9.204;2022-12-07T12:55:50;11.47;;;7.27;;
7142;SDS011;3613;48.902;9.204;2022-12-07T12:58:39;11.10;;;7.30;;
7142;SDS011;3613;48.902;9.204;2022-12-07T13:02:08;9.57;;;6.33;;
7142;SDS011;3613;48.902;9.204;2022-12-07T13:07:03;9.13;;;7.03;;
7142;SDS011;3613;48.902;9.204;2022-12-07T13:09:29;13.03;;;7.27;;
7142;SDS011;3613;48.902;9.204;2022-12-07T13:12:05;11.77;;;7.70;;
7142;SDS011;3613;48.902;9.204;2022-12-07T13:14:42;10.53;;;7.47;;
7142;SDS011;3613;48.902;9.204;2022-12-07T13:20:01;11.63;;;7.97;;
7142;SDS011;3613;48.902;9.204;2022-12-07T13:27:24;12.87;;;7.83;;
7142;SDS011;3613;48.902;9.204;2022-12-07T13:29:54;13.93;;;8.50;;
7142;SDS011;3613;48.902;9.204;2022-12-07T13:32:25;11.93;;;7.87;;
7142;SDS011;3613;48.902;9.204;2022-12-07T13:34:54;13.17;;;7.40;;
7142;SDS011;3613;48.902;9.204;2022-12-07T13:37:27;15.30;;;8.53;;
7142;SDS011;3613;48.902;9.204;2022-12-07T13:39:58;12.93;;;7.73;;
7142;SDS011;3613;48.902;9.204;2022-12-07T13:42:26;12.63;;;7.60;;
7142;SDS011;3613;48.902;9.204;2022-12-07T13:44:54;11.40;;;8.07;;
7142;SDS011;3613;48.902;9.204;2022-12-07T13:49:54;13.90;;;8.73;;
7142;SDS011;3613;48.902;9.204;2022-12-07T13:52:24;12.67;;;8.27;;
7142;SDS011;3613;48.902;9.204;2022-12-07T13:55:01;17.63;;;8.83;;
7142;SDS011;3613;48.902;9.204;2022-12-07T13:57:39;11.67;;;8.13;;
7142;SDS011;3613;48.902;9.204;2022-12-07T14:05:28;12.83;;;8.40;;
7142;SDS011;3613;48.902;9.204;2022-12-07T14:16:29;16.73;;;9.67;;
7142;SDS011;3613;48.902;9.204;2022-12-07T14:18:58;15.83;;;9.33;;
7142;SDS011;3613;48.902;9.204;2022-12-07T14:21:27;14.97;;;8.80;;
7142;SDS011;3613;48.902;9.204;2022-12-07T14:24:04;16.17;;;8.87;;
7142;SDS011;3613;48.902;9.204;2022-12-07T14:26:46;18.97;;;9.07;;
7142;SDS011;3613;48.902;9.204;2022-12-07T14:31:54;14.37;;;9.03;;
7142;SDS011;3613;48.902;9.204;2022-12-07T14:34:21;15.83;;;9.23;;
7142;SDS011;3613;48.902;9.204;2022-12-07T14:36:47;15.73;;;9.07;;
7142;SDS011;3613;48.902;9.204;2022-12-07T14:39:13;14.57;;;8.40;;
7142;SDS011;3613;48.902;9.204;2022-12-07T14:41:38;16.17;;;9.07;;
7142;SDS011;3613;48.902;9.204;2022-12-07T14:44:16;15.80;;;9.30;;
7142;SDS011;3613;48.902;9.204;2022-12-07T14:46:43;14.00;;;9.53;;
7142;SDS011;3613;48.902;9.204;2022-12-07T14:49:09;13.93;;;8.33;;
7142;SDS011;3613;48.902;9.204;2022-12-07T14:51:36;14.83;;;9.43;;
7142;SDS011;3613;48.902;9.204;2022-12-07T14:54:04;14.47;;;8.67;;
7142;SDS011;3613;48.902;9.204;2022-12-07T14:56:31;13.07;;;7.93;;
7142;SDS011;3613;48.902;9.204;2022-12-07T14:58:56;15.23;;;8.97;;
7142;SDS011;3613;48.902;9.204;2022-12-07T15:01:25;15.93;;;9.07;;
7142;SDS011;3613;48.902;9.204;2022-12-07T15:03:53;17.50;;;10.00;;
7142;SDS011;3613;48.902;9.204;2022-12-07T15:06:19;13.63;;;8.80;;
7142;SDS011;3613;48.902;9.204;2022-12-07T15:08:45;13.30;;;8.60;;
7142;SDS011;3613;48.902;9.204;2022-12-07T15:11:16;15.87;;;8.43;;
7142;SDS011;3613;48.902;9.204;2022-12-07T15:13:45;13.77;;;8.17;;
7142;SDS011;3613;48.902;9.204;2022-12-07T15:16:29;14.90;;;8.60;;
7142;SDS011;3613;48.902;9.204;2022-12-07T15:18:55;13.30;;;8.47;;
7142;SDS011;3613;48.902;9.204;2022-12-07T15:21:25;13.87;;;7.90;;
7142;SDS011;3613;48.902;9.204;2022-12-07T15:23:51;14.10;;;8.03;;
7142;SDS011;3613;48.902;9.204;2022-12-07T15:26:19;18.47;;;9.60;;
7142;SDS011;3613;48.902;9.204;2022-12-07T15:28:44;14.27;;;9.13;;
7142;SDS011;3613;48.902;9.204;2022-12-07T15:31:13;14.83;;;9.57;;
7142;SDS011;3613;48.902;9.204;2022-12-07T15:33:40;18.40;;;10.03;;
7142;SDS011;3613;48.902;9.204;2022-12-07T15:36:06;15.90;;;10.43;;
7142;SDS011;3613;48.902;9.204;2022-12-07T15:38:32;17.57;;;10.17;;
7142;SDS011;3613;48.902;9.204;2022-12-07T15:41:00;22.33;;;11.00;;
7142;SDS011;3613;48.902;9.204;2022-12-07T15:43:25;20.57;;;10.80;;
7142;SDS011;3613;48.902;9.204;2022-12-07T15:46:09;21.40;;;11.27;;
7142;SDS011;3613;48.902;9.204;2022-12-07T15:48:35;17.30;;;10.00;;
7142;SDS011;3613;48.902;9.204;2022-12-07T15:51:02;20.17;;;10.33;;
7142;SDS011;3613;48.902;9.204;2022-12-07T15:53:31;20.10;;;11.07;;
7142;SDS011;3613;48.902;9.204;2022-12-07T15:55:59;20.00;;;10.97;;
7142;SDS011;3613;48.902;9.204;2022-12-07T15:58:25;18.93;;;10.33;;
7142;SDS011;3613;48.902;9.204;2022-12-07T16:00:53;21.87;;;10.77;;
7142;SDS011;3613;48.902;9.204;2022-12-07T16:03:19;21.93;;;11.77;;
7142;SDS011;3613;48.902;9.204;2022-12-07T16:05:48;20.07;;;11.60;;
7142;SDS011;3613;48.902;9.204;2022-12-07T16:08:14;19.63;;;11.10;;
7142;SDS011;3613;48.902;9.204;2022-12-07T16:10:40;21.50;;;11.27;;
7142;SDS011;3613;48.902;9.204;2022-12-07T16:13:08;21.43;;;12.03;;
7142;SDS011;3613;48.902;9.204;2022-12-07T16:15:41;20.57;;;12.30;;
7142;SDS011;3613;48.902;9.204;2022-12-07T16:18:07;22.07;;;11.63;;
7142;SDS011;3613;48.902;9.204;2022-12-07T16:20:33;20.67;;;11.53;;
7142;SDS011;3613;48.902;9.204;2022-12-07T16:22:59;20.03;;;12.37;;
7142;SDS011;3613;48.902;9.204;2022-12-07T16:25:24;28.00;;;16.30;;
7142;SDS011;3613;48.902;9.204;2022-12-07T16:27:51;23.07;;;12.27;;
7142;SDS011;3613;48.902;9.204;2022-12-07T16:30:17;19.53;;;11.27;;
7142;SDS011;3613;48.902;9.204;2022-12-07T16:32:43;21.07;;;10.77;;
7142;SDS011;3613;48.902;9.204;2022-12-07T16:35:09;19.87;;;10.67;;
7142;SDS011;3613;48.902;9.204;2022-12-07T16:37:36;16.47;;;9.87;;
7142;SDS011;3613;48.902;9.204;2022-12-07T16:40:02;19.33;;;11.00;;
7142;SDS011;3613;48.902;9.204;2022-12-07T16:42:31;15.60;;;9.70;;
7142;SDS011;3613;48.902;9.204;2022-12-07T16:44:58;20.00;;;10.57;;
7142;SDS011;3613;48.902;9.204;2022-12-07T16:47:27;22.23;;;10.80;;
7142;SDS011;3613;48.902;9.204;2022-12-07T16:49:53;16.60;;;10.27;;
7142;SDS011;3613;48.902;9.204;2022-12-07T16:52:19;15.90;;;9.77;;
7142;SDS011;3613;48.902;9.204;2022-12-07T16:54:45;20.37;;;11.67;;
7142;SDS011;3613;48.902;9.204;2022-12-07T16:57:11;17.97;;;10.90;;
7142;SDS011;3613;48.902;9.204;2022-12-07T16:59:37;20.10;;;10.60;;
7142;SDS011;3613;48.902;9.204;2022-12-07T17:02:05;19.97;;;10.33;;
7142;SDS011;3613;48.902;9.204;2022-12-07T17:04:35;18.20;;;10.00;;
7142;SDS011;3613;48.902;9.204;2022-12-07T17:07:06;17.60;;;9.93;;
7142;SDS011;3613;48.902;9.204;2022-12-07T17:09:33;19.90;;;11.10;;
7142;SDS011;3613;48.902;9.204;2022-12-07T17:12:03;16.60;;;10.57;;
7142;SDS011;3613;48.902;9.204;2022-12-07T17:14:31;21.47;;;11.47;;
7142;SDS011;3613;48.902;9.204;2022-12-07T17:17:16;16.80;;;10.13;;
7142;SDS011;3613;48.902;9.204;2022-12-07T17:19:41;16.17;;;9.13;;
7142;SDS011;3613;48.902;9.204;2022-12-07T17:22:07;15.77;;;9.70;;
7142;SDS011;3613;48.902;9.204;2022-12-07T17:24:36;16.53;;;10.00;;
7142;SDS011;3613;48.902;9.204;2022-12-07T17:27:01;18.03;;;10.50;;